sensor_id;sensor_type;location;lat;lon;timestamp;temperature;humidity
11569;DHT22;5840;46.894;15.542;2023-11-19T00:00:31;3.40;99.90
11569;DHT22;5840;46.894;15.542;2023-11-19T00:02:58;3.40;99.90
11569;DHT22;5840;46.894;15.542;2023-11-19T00:05:25;3.40;99.90
11569;DHT22;5840;46.894;15.542;2023-11-19T00:07:51;3.40;99.90
11569;DHT22;5840;46.894;15.542;2023-11-19T00:10:20;3.40;99.90
11569;DHT22;5840;46.894;15.542;2023-11-19T00:12:48;3.40;99.90
11569;DHT22;5840;46.894;15.542;2023-11-19T00:15:16;3.40;99.90
11569;DHT22;5840;46.894;15.542;2023-11-19T00:17:45;3.40;99.90
11569;DHT22;5840;46.894;15.542;2023-11-19T00:20:14;3.40;99.90
11569;DHT22;5840;46.894;15.542;2023-11-19T00:22:41;3.40;99.90
11569;DHT22;5840;46.894;15.542;2023-11-19T00:25:08;3.50;99.90
11569;DHT22;5840;46.894;15.542;2023-11-19T00:27:37;3.50;99.90
11569;DHT22;5840;46.894;15.542;2023-11-19T00:30:05;3.50;99.90
11569;DHT22;5840;46.894;15.542;2023-11-19T00:32:32;3.50;99.90
11569;DHT22;5840;46.894;15.542;2023-11-19T00:34:59;3.50;99.90
11569;DHT22;5840;46.894;15.542;2023-11-19T00:37:26;3.50;99.90
11569;DHT22;5840;46.894;15.542;2023-11-19T00:39:53;3.60;99.90
11569;DHT22;5840;46.894;15.542;2023-11-19T00:42:21;3.60;99.90
11569;DHT22;5840;46.894;15.542;2023-11-19T00:44:51;3.60;99.90
11569;DHT22;5840;46.894;15.542;2023-11-19T00:47:18;3.60;99.90
11569;DHT22;5840;46.894;15.542;2023-11-19T00:49:46;3.60;99.90
11569;DHT22;5840;46.894;15.542;2023-11-19T00:52:15;3.60;99.90
11569;DHT22;5840;46.894;15.542;2023-11-19T00:54:42;3.60;99.90
11569;DHT22;5840;46.894;15.542;2023-11-19T00:57:09;3.60;99.90
11569;DHT22;5840;46.894;15.542;2023-11-19T00:59:36;3.60;99.90
11569;DHT22;5840;46.894;15.542;2023-11-19T01:02:05;3.60;99.90
11569;DHT22;5840;46.894;15.542;2023-11-19T01:04:33;3.60;99.90
11569;DHT22;5840;46.894;15.542;2023-11-19T01:07:01;3.60;99.90
11569;DHT22;5840;46.894;15.542;2023-11-19T01:09:30;3.60;99.90
11569;DHT22;5840;46.894;15.542;2023-11-19T01:11:58;3.60;99.90
11569;DHT22;5840;46.894;15.542;2023-11-19T01:14:26;3.60;99.90
11569;DHT22;5840;46.894;15.542;2023-11-19T01:16:53;3.60;99.90
11569;DHT22;5840;46.894;15.542;2023-11-19T01:19:23;3.60;99.90
11569;DHT22;5840;46.894;15.542;2023-11-19T01:21:50;3.60;99.90
11569;DHT22;5840;46.894;15.542;2023-11-19T01:24:17;3.60;99.90
11569;DHT22;5840;46.894;15.542;2023-11-19T01:26:44;3.60;99.90
11569;DHT22;5840;46.894;15.542;2023-11-19T01:29:11;3.60;99.90
11569;DHT22;5840;46.894;15.542;2023-11-19T01:31:40;3.60;99.90
11569;DHT22;5840;46.894;15.542;2023-11-19T01:34:07;3.60;99.90
11569;DHT22;5840;46.894;15.542;2023-11-19T01:36:36;3.60;99.90
11569;DHT22;5840;46.894;15.542;2023-11-19T01:39:03;3.60;99.90
11569;DHT22;5840;46.894;15.542;2023-11-19T01:41:34;3.60;99.90
11569;DHT22;5840;46.894;15.542;2023-11-19T01:44:01;3.60;99.90
11569;DHT22;5840;46.894;15.542;2023-11-19T01:46:29;3.60;99.90
11569;DHT22;5840;46.894;15.542;2023-11-19T01:48:59;3.60;99.90
11569;DHT22;5840;46.894;15.542;2023-11-19T01:51:26;3.70;99.90
11569;DHT22;5840;46.894;15.542;2023-11-19T01:53:55;3.70;99.90
11569;DHT22;5840;46.894;15.542;2023-11-19T01:56:26;3.70;99.90
11569;DHT22;5840;46.894;15.542;2023-11-19T01:58:53;3.70;99.90
11569;DHT22;5840;46.894;15.542;2023-11-19T02:01:22;3.60;99.90
11569;DHT22;5840;46.894;15.542;2023-11-19T02:03:48;3.60;99.90
11569;DHT22;5840;46.894;15.542;2023-11-19T02:06:16;3.60;99.90
11569;DHT22;5840;46.894;15.542;2023-11-19T02:08:43;3.60;99.90
11569;DHT22;5840;46.894;15.542;2023-11-19T02:11:11;3.60;99.90
11569;DHT22;5840;46.894;15.542;2023-11-19T02:13:39;3.60;99.90
11569;DHT22;5840;46.894;15.542;2023-11-19T02:16:07;3.60;99.90
11569;DHT22;5840;46.894;15.542;2023-11-19T02:18:35;3.60;99.90
11569;DHT22;5840;46.894;15.542;2023-11-19T02:21:02;3.60;99.90
11569;DHT22;5840;46.894;15.542;2023-11-19T02:23:31;3.60;99.90
11569;DHT22;5840;46.894;15.542;2023-11-19T02:26:14;3.60;99.90
11569;DHT22;5840;46.894;15.542;2023-11-19T02:28:47;3.60;99.90
11569;DHT22;5840;46.894;15.542;2023-11-19T02:31:14;3.60;99.90
11569;DHT22;5840;46.894;15.542;2023-11-19T02:33:41;3.60;99.90
11569;DHT22;5840;46.894;15.542;2023-11-19T02:36:08;3.60;99.90
11569;DHT22;5840;46.894;15.542;2023-11-19T02:38:36;3.60;99.90
11569;DHT22;5840;46.894;15.542;2023-11-19T02:41:04;3.60;99.90
11569;DHT22;5840;46.894;15.542;2023-11-19T02:43:31;3.60;99.90
11569;DHT22;5840;46.894;15.542;2023-11-19T02:46:01;3.50;99.90
11569;DHT22;5840;46.894;15.542;2023-11-19T02:48:28;3.50;99.90
11569;DHT22;5840;46.894;15.542;2023-11-19T02:50:56;3.50;99.90
11569;DHT22;5840;46.894;15.542;2023-11-19T02:53:24;3.50;99.90
11569;DHT22;5840;46.894;15.542;2023-11-19T02:55:53;3.50;99.90
11569;DHT22;5840;46.894;15.542;2023-11-19T02:58:26;3.50;99.90
11569;DHT22;5840;46.894;15.542;2023-11-19T03:00:54;3.50;99.90
11569;DHT22;5840;46.894;15.542;2023-11-19T03:03:26;3.50;99.90
11569;DHT22;5840;46.894;15.542;2023-11-19T03:06:04;3.50;99.90
11569;DHT22;5840;46.894;15.542;2023-11-19T03:08:31;3.60;99.90
11569;DHT22;5840;46.894;15.542;2023-11-19T03:10:58;3.60;99.90
11569;DHT22;5840;46.894;15.542;2023-11-19T03:13:25;3.60;99.90
11569;DHT22;5840;46.894;15.542;2023-11-19T03:15:52;3.60;99.90
11569;DHT22;5840;46.894;15.542;2023-11-19T03:18:20;3.60;99.90
11569;DHT22;5840;46.894;15.542;2023-11-19T03:20:49;3.60;99.90
11569;DHT22;5840;46.894;15.542;2023-11-19T03:23:16;3.60;99.90
11569;DHT22;5840;46.894;15.542;2023-11-19T03:25:43;3.60;99.90
11569;DHT22;5840;46.894;15.542;2023-11-19T03:28:10;3.60;99.90
11569;DHT22;5840;46.894;15.542;2023-11-19T03:30:37;3.60;99.90
11569;DHT22;5840;46.894;15.542;2023-11-19T03:33:04;3.60;99.90
11569;DHT22;5840;46.894;15.542;2023-11-19T03:35:31;3.60;99.90
11569;DHT22;5840;46.894;15.542;2023-11-19T03:38:01;3.60;99.90
11569;DHT22;5840;46.894;15.542;2023-11-19T03:40:28;3.60;99.90
11569;DHT22;5840;46.894;15.542;2023-11-19T03:42:56;3.60;99.90
11569;DHT22;5840;46.894;15.542;2023-11-19T03:45:23;3.60;99.90
11569;DHT22;5840;46.894;15.542;2023-11-19T03:47:50;3.60;99.90
11569;DHT22;5840;46.894;15.542;2023-11-19T03:50:17;3.70;99.90
11569;DHT22;5840;46.894;15.542;2023-11-19T03:52:46;3.70;99.90
11569;DHT22;5840;46.894;15.542;2023-11-19T03:55:14;3.70;99.90
11569;DHT22;5840;46.894;15.542;2023-11-19T03:57:41;3.70;99.90
11569;DHT22;5840;46.894;15.542;2023-11-19T04:00:08;3.70;99.90
11569;DHT22;5840;46.894;15.542;2023-11-19T04:02:36;3.70;99.90
11569;DHT22;5840;46.894;15.542;2023-11-19T04:05:03;3.70;99.90
11569;DHT22;5840;46.894;15.542;2023-11-19T04:07:30;3.70;99.90
11569;DHT22;5840;46.894;15.542;2023-11-19T04:09:58;3.70;99.90
11569;DHT22;5840;46.894;15.542;2023-11-19T04:12:27;3.70;99.90
11569;DHT22;5840;46.894;15.542;2023-11-19T04:14:54;3.70;99.90
11569;DHT22;5840;46.894;15.542;2023-11-19T04:17:22;3.70;99.90
11569;DHT22;5840;46.894;15.542;2023-11-19T04:19:50;3.70;99.90
11569;DHT22;5840;46.894;15.542;2023-11-19T04:22:17;3.70;99.90
11569;DHT22;5840;46.894;15.542;2023-11-19T04:24:44;3.70;99.90
11569;DHT22;5840;46.894;15.542;2023-11-19T04:27:11;3.70;99.90
11569;DHT22;5840;46.894;15.542;2023-11-19T04:29:39;3.70;99.90
11569;DHT22;5840;46.894;15.542;2023-11-19T04:32:06;3.60;99.90
11569;DHT22;5840;46.894;15.542;2023-11-19T04:34:34;3.60;99.90
11569;DHT22;5840;46.894;15.542;2023-11-19T04:37:03;3.60;99.90
11569;DHT22;5840;46.894;15.542;2023-11-19T04:39:30;3.60;99.90
11569;DHT22;5840;46.894;15.542;2023-11-19T04:41:57;3.50;99.90
11569;DHT22;5840;46.894;15.542;2023-11-19T04:44:25;3.50;99.90
11569;DHT22;5840;46.894;15.542;2023-11-19T04:46:53;3.50;99.90
11569;DHT22;5840;46.894;15.542;2023-11-19T04:49:20;3.50;99.90
11569;DHT22;5840;46.894;15.542;2023-11-19T04:51:47;3.50;99.90
11569;DHT22;5840;46.894;15.542;2023-11-19T04:54:14;3.50;99.90
11569;DHT22;5840;46.894;15.542;2023-11-19T04:56:45;3.50;99.90
11569;DHT22;5840;46.894;15.542;2023-11-19T04:59:12;3.40;99.90
11569;DHT22;5840;46.894;15.542;2023-11-19T05:01:39;3.40;99.90
11569;DHT22;5840;46.894;15.542;2023-11-19T05:04:07;3.40;99.90
11569;DHT22;5840;46.894;15.542;2023-11-19T05:06:34;3.40;99.90
11569;DHT22;5840;46.894;15.542;2023-11-19T05:09:02;3.30;99.90
11569;DHT22;5840;46.894;15.542;2023-11-19T05:11:32;3.30;99.90
11569;DHT22;5840;46.894;15.542;2023-11-19T05:14:00;3.30;99.90
11569;DHT22;5840;46.894;15.542;2023-11-19T05:16:26;3.20;99.90
11569;DHT22;5840;46.894;15.542;2023-11-19T05:18:53;3.10;99.90
11569;DHT22;5840;46.894;15.542;2023-11-19T05:21:22;3.10;99.90
11569;DHT22;5840;46.894;15.542;2023-11-19T05:23:49;3.00;99.90
11569;DHT22;5840;46.894;15.542;2023-11-19T05:26:19;3.00;99.90
11569;DHT22;5840;46.894;15.542;2023-11-19T05:28:47;3.00;99.90
11569;DHT22;5840;46.894;15.542;2023-11-19T05:31:15;3.00;99.90
11569;DHT22;5840;46.894;15.542;2023-11-19T05:33:43;3.00;99.90
11569;DHT22;5840;46.894;15.542;2023-11-19T05:36:11;3.00;99.90
11569;DHT22;5840;46.894;15.542;2023-11-19T05:38:39;2.90;99.90
11569;DHT22;5840;46.894;15.542;2023-11-19T05:41:06;2.80;99.90
11569;DHT22;5840;46.894;15.542;2023-11-19T05:43:33;2.80;99.90
11569;DHT22;5840;46.894;15.542;2023-11-19T05:46:00;2.80;99.90
11569;DHT22;5840;46.894;15.542;2023-11-19T05:48:28;2.80;99.90
11569;DHT22;5840;46.894;15.542;2023-11-19T05:50:55;2.80;99.90
11569;DHT22;5840;46.894;15.542;2023-11-19T05:53:21;2.80;99.90
11569;DHT22;5840;46.894;15.542;2023-11-19T05:55:50;2.70;99.90
11569;DHT22;5840;46.894;15.542;2023-11-19T05:58:24;2.70;99.90
11569;DHT22;5840;46.894;15.542;2023-11-19T06:00:54;2.70;99.90
11569;DHT22;5840;46.894;15.542;2023-11-19T06:03:21;2.70;99.90
11569;DHT22;5840;46.894;15.542;2023-11-19T06:05:48;2.70;99.90
11569;DHT22;5840;46.894;15.542;2023-11-19T06:08:15;2.70;99.90
11569;DHT22;5840;46.894;15.542;2023-11-19T06:10:43;2.80;99.90
11569;DHT22;5840;46.894;15.542;2023-11-19T06:13:13;2.80;99.90
11569;DHT22;5840;46.894;15.542;2023-11-19T06:15:40;2.80;99.90
11569;DHT22;5840;46.894;15.542;2023-11-19T06:18:08;2.80;99.90
11569;DHT22;5840;46.894;15.542;2023-11-19T06:20:35;2.80;99.90
11569;DHT22;5840;46.894;15.542;2023-11-19T06:23:02;2.80;99.90
11569;DHT22;5840;46.894;15.542;2023-11-19T06:25:29;2.80;99.90
11569;DHT22;5840;46.894;15.542;2023-11-19T06:27:56;2.80;99.90
11569;DHT22;5840;46.894;15.542;2023-11-19T06:30:25;2.80;99.90
11569;DHT22;5840;46.894;15.542;2023-11-19T06:32:53;2.80;99.90
11569;DHT22;5840;46.894;15.542;2023-11-19T06:35:21;2.80;99.90
11569;DHT22;5840;46.894;15.542;2023-11-19T06:37:47;2.80;99.90
11569;DHT22;5840;46.894;15.542;2023-11-19T06:40:15;2.80;99.90
11569;DHT22;5840;46.894;15.542;2023-11-19T06:42:42;2.80;99.90
11569;DHT22;5840;46.894;15.542;2023-11-19T06:45:09;2.80;99.90
11569;DHT22;5840;46.894;15.542;2023-11-19T06:47:37;2.80;99.90
11569;DHT22;5840;46.894;15.542;2023-11-19T06:50:06;2.90;99.90
11569;DHT22;5840;46.894;15.542;2023-11-19T06:52:33;2.90;99.90
11569;DHT22;5840;46.894;15.542;2023-11-19T06:55:00;2.90;99.90
11569;DHT22;5840;46.894;15.542;2023-11-19T06:57:27;2.90;99.90
11569;DHT22;5840;46.894;15.542;2023-11-19T06:59:55;3.00;99.90
11569;DHT22;5840;46.894;15.542;2023-11-19T07:02:22;3.00;99.90
11569;DHT22;5840;46.894;15.542;2023-11-19T07:04:50;3.10;99.90
11569;DHT22;5840;46.894;15.542;2023-11-19T07:07:17;3.20;99.90
11569;DHT22;5840;46.894;15.542;2023-11-19T07:09:45;3.20;99.90
11569;DHT22;5840;46.894;15.542;2023-11-19T07:12:13;3.30;99.90
11569;DHT22;5840;46.894;15.542;2023-11-19T07:14:41;3.40;99.90
11569;DHT22;5840;46.894;15.542;2023-11-19T07:17:08;3.40;99.90
11569;DHT22;5840;46.894;15.542;2023-11-19T07:19:36;3.50;99.90
11569;DHT22;5840;46.894;15.542;2023-11-19T07:22:06;3.50;99.90
11569;DHT22;5840;46.894;15.542;2023-11-19T07:24:33;3.50;99.90
11569;DHT22;5840;46.894;15.542;2023-11-19T07:27:00;3.50;99.90
11569;DHT22;5840;46.894;15.542;2023-11-19T07:29:29;3.60;99.90
11569;DHT22;5840;46.894;15.542;2023-11-19T07:31:57;3.80;99.90
11569;DHT22;5840;46.894;15.542;2023-11-19T07:34:24;3.90;99.90
11569;DHT22;5840;46.894;15.542;2023-11-19T07:36:52;4.00;99.90
11569;DHT22;5840;46.894;15.542;2023-11-19T07:39:20;3.90;99.90
11569;DHT22;5840;46.894;15.542;2023-11-19T07:41:47;3.80;99.90
11569;DHT22;5840;46.894;15.542;2023-11-19T07:44:14;3.80;99.90
11569;DHT22;5840;46.894;15.542;2023-11-19T07:46:42;3.70;99.90
11569;DHT22;5840;46.894;15.542;2023-11-19T07:49:10;3.60;99.90
11569;DHT22;5840;46.894;15.542;2023-11-19T07:51:38;3.50;99.90
11569;DHT22;5840;46.894;15.542;2023-11-19T07:54:05;3.40;99.90
11569;DHT22;5840;46.894;15.542;2023-11-19T07:56:33;3.20;99.90
11569;DHT22;5840;46.894;15.542;2023-11-19T07:59:01;3.20;99.90
11569;DHT22;5840;46.894;15.542;2023-11-19T08:01:28;3.20;99.90
11569;DHT22;5840;46.894;15.542;2023-11-19T08:03:55;3.30;99.90
11569;DHT22;5840;46.894;15.542;2023-11-19T08:06:22;3.40;99.90
11569;DHT22;5840;46.894;15.542;2023-11-19T08:08:49;3.50;99.90
11569;DHT22;5840;46.894;15.542;2023-11-19T08:11:16;3.60;99.90
11569;DHT22;5840;46.894;15.542;2023-11-19T08:13:44;3.70;99.90
11569;DHT22;5840;46.894;15.542;2023-11-19T08:16:11;3.70;99.90
11569;DHT22;5840;46.894;15.542;2023-11-19T08:18:41;3.70;99.90
11569;DHT22;5840;46.894;15.542;2023-11-19T08:21:08;3.70;99.90
11569;DHT22;5840;46.894;15.542;2023-11-19T08:23:36;3.80;99.90
11569;DHT22;5840;46.894;15.542;2023-11-19T08:26:04;4.00;99.90
11569;DHT22;5840;46.894;15.542;2023-11-19T08:28:31;4.30;99.90
11569;DHT22;5840;46.894;15.542;2023-11-19T08:31:01;4.70;99.90
11569;DHT22;5840;46.894;15.542;2023-11-19T08:33:29;5.10;99.90
11569;DHT22;5840;46.894;15.542;2023-11-19T08:35:56;5.20;99.90
11569;DHT22;5840;46.894;15.542;2023-11-19T08:38:24;5.20;99.90
11569;DHT22;5840;46.894;15.542;2023-11-19T08:40:50;5.20;99.90
11569;DHT22;5840;46.894;15.542;2023-11-19T08:43:17;5.30;99.90
11569;DHT22;5840;46.894;15.542;2023-11-19T08:45:44;5.30;99.90
11569;DHT22;5840;46.894;15.542;2023-11-19T08:48:13;5.30;99.90
11569;DHT22;5840;46.894;15.542;2023-11-19T08:50:40;5.30;99.90
11569;DHT22;5840;46.894;15.542;2023-11-19T08:53:07;5.20;99.90
11569;DHT22;5840;46.894;15.542;2023-11-19T08:55:34;5.20;99.90
11569;DHT22;5840;46.894;15.542;2023-11-19T08:58:01;5.30;99.90
11569;DHT22;5840;46.894;15.542;2023-11-19T09:00:28;5.80;99.90
11569;DHT22;5840;46.894;15.542;2023-11-19T09:02:56;6.30;99.90
11569;DHT22;5840;46.894;15.542;2023-11-19T09:05:25;6.70;99.90
11569;DHT22;5840;46.894;15.542;2023-11-19T09:07:52;7.20;99.90
11569;DHT22;5840;46.894;15.542;2023-11-19T09:10:19;7.60;99.90
11569;DHT22;5840;46.894;15.542;2023-11-19T09:12:46;8.00;99.90
11569;DHT22;5840;46.894;15.542;2023-11-19T09:15:14;8.20;99.90
11569;DHT22;5840;46.894;15.542;2023-11-19T09:17:41;8.40;99.90
11569;DHT22;5840;46.894;15.542;2023-11-19T09:20:09;8.50;99.90
11569;DHT22;5840;46.894;15.542;2023-11-19T09:22:39;8.70;99.90
11569;DHT22;5840;46.894;15.542;2023-11-19T09:25:07;8.90;99.90
11569;DHT22;5840;46.894;15.542;2023-11-19T09:27:34;8.80;99.90
11569;DHT22;5840;46.894;15.542;2023-11-19T09:30:01;8.50;99.90
11569;DHT22;5840;46.894;15.542;2023-11-19T09:32:29;8.20;99.90
11569;DHT22;5840;46.894;15.542;2023-11-19T09:34:56;8.00;99.90
11569;DHT22;5840;46.894;15.542;2023-11-19T09:37:23;7.70;99.90
11569;DHT22;5840;46.894;15.542;2023-11-19T09:39:51;7.70;99.90
11569;DHT22;5840;46.894;15.542;2023-11-19T09:42:19;7.50;99.90
11569;DHT22;5840;46.894;15.542;2023-11-19T09:44:47;7.30;99.90
11569;DHT22;5840;46.894;15.542;2023-11-19T09:47:15;7.30;99.90
11569;DHT22;5840;46.894;15.542;2023-11-19T09:49:44;7.10;99.90
11569;DHT22;5840;46.894;15.542;2023-11-19T09:52:11;6.90;99.90
11569;DHT22;5840;46.894;15.542;2023-11-19T09:54:38;6.90;99.90
11569;DHT22;5840;46.894;15.542;2023-11-19T09:57:07;6.90;99.90
11569;DHT22;5840;46.894;15.542;2023-11-19T09:59:37;6.80;99.90
11569;DHT22;5840;46.894;15.542;2023-11-19T10:02:05;6.80;99.90
11569;DHT22;5840;46.894;15.542;2023-11-19T10:04:34;6.70;99.90
11569;DHT22;5840;46.894;15.542;2023-11-19T10:07:03;7.10;99.90
11569;DHT22;5840;46.894;15.542;2023-11-19T10:09:30;7.60;99.90
11569;DHT22;5840;46.894;15.542;2023-11-19T10:11:57;8.30;99.90
11569;DHT22;5840;46.894;15.542;2023-11-19T10:14:25;9.00;99.90
11569;DHT22;5840;46.894;15.542;2023-11-19T10:16:54;9.50;99.90
11569;DHT22;5840;46.894;15.542;2023-11-19T10:19:22;9.80;99.90
11569;DHT22;5840;46.894;15.542;2023-11-19T10:21:49;10.20;99.90
11569;DHT22;5840;46.894;15.542;2023-11-19T10:24:16;10.30;99.90
11569;DHT22;5840;46.894;15.542;2023-11-19T10:26:57;10.20;99.90
11569;DHT22;5840;46.894;15.542;2023-11-19T10:29:26;10.10;99.90
11569;DHT22;5840;46.894;15.542;2023-11-19T10:31:57;10.30;99.90
11569;DHT22;5840;46.894;15.542;2023-11-19T10:34:25;10.00;99.90
11569;DHT22;5840;46.894;15.542;2023-11-19T10:36:53;9.70;99.90
11569;DHT22;5840;46.894;15.542;2023-11-19T10:39:20;9.40;99.90
11569;DHT22;5840;46.894;15.542;2023-11-19T10:41:49;9.30;99.90
11569;DHT22;5840;46.894;15.542;2023-11-19T10:47:10;9.40;99.90
11569;DHT22;5840;46.894;15.542;2023-11-19T10:49:38;10.10;99.90
11569;DHT22;5840;46.894;15.542;2023-11-19T10:52:05;10.50;99.90
11569;DHT22;5840;46.894;15.542;2023-11-19T10:54:34;10.90;99.90
11569;DHT22;5840;46.894;15.542;2023-11-19T10:57:02;11.30;99.50
11569;DHT22;5840;46.894;15.542;2023-11-19T10:59:30;11.60;99.10
11569;DHT22;5840;46.894;15.542;2023-11-19T11:01:58;11.80;99.90
11569;DHT22;5840;46.894;15.542;2023-11-19T11:04:29;11.90;99.10
11569;DHT22;5840;46.894;15.542;2023-11-19T11:06:58;11.90;98.20
11569;DHT22;5840;46.894;15.542;2023-11-19T11:09:26;11.90;97.80
11569;DHT22;5840;46.894;15.542;2023-11-19T11:11:54;11.90;97.60
11569;DHT22;5840;46.894;15.542;2023-11-19T11:14:24;11.90;98.20
11569;DHT22;5840;46.894;15.542;2023-11-19T11:16:53;11.70;97.20
11569;DHT22;5840;46.894;15.542;2023-11-19T11:19:20;11.80;98.30
11569;DHT22;5840;46.894;15.542;2023-11-19T11:21:51;11.90;97.60
11569;DHT22;5840;46.894;15.542;2023-11-19T11:24:40;12.10;98.30
11569;DHT22;5840;46.894;15.542;2023-11-19T11:30:25;12.70;96.30
11569;DHT22;5840;46.894;15.542;2023-11-19T11:33:05;12.90;96.30
11569;DHT22;5840;46.894;15.542;2023-11-19T11:35:44;13.10;95.60
11569;DHT22;5840;46.894;15.542;2023-11-19T11:38:21;13.20;95.90
11569;DHT22;5840;46.894;15.542;2023-11-19T11:43:47;13.30;95.20
11569;DHT22;5840;46.894;15.542;2023-11-19T11:49:26;13.70;95.20
11569;DHT22;5840;46.894;15.542;2023-11-19T11:52:00;13.50;94.70
11569;DHT22;5840;46.894;15.542;2023-11-19T11:54:30;13.20;95.10
11569;DHT22;5840;46.894;15.542;2023-11-19T11:57:08;13.00;95.20
11569;DHT22;5840;46.894;15.542;2023-11-19T11:59:49;12.90;96.10
11569;DHT22;5840;46.894;15.542;2023-11-19T12:02:17;12.70;96.40
11569;DHT22;5840;46.894;15.542;2023-11-19T12:04:47;12.60;95.90
11569;DHT22;5840;46.894;15.542;2023-11-19T12:07:17;12.60;97.00
11569;DHT22;5840;46.894;15.542;2023-11-19T12:09:51;12.50;96.10
11569;DHT22;5840;46.894;15.542;2023-11-19T12:12:22;12.50;96.10
11569;DHT22;5840;46.894;15.542;2023-11-19T12:15:04;12.50;96.60
11569;DHT22;5840;46.894;15.542;2023-11-19T12:17:46;12.30;96.80
11569;DHT22;5840;46.894;15.542;2023-11-19T12:20:15;12.20;96.90
11569;DHT22;5840;46.894;15.542;2023-11-19T12:22:43;12.20;97.30
11569;DHT22;5840;46.894;15.542;2023-11-19T12:25:12;12.10;97.70
11569;DHT22;5840;46.894;15.542;2023-11-19T12:27:40;11.90;97.50
11569;DHT22;5840;46.894;15.542;2023-11-19T12:30:08;11.90;97.30
11569;DHT22;5840;46.894;15.542;2023-11-19T12:32:39;11.80;97.30
11569;DHT22;5840;46.894;15.542;2023-11-19T12:35:07;11.70;98.00
11569;DHT22;5840;46.894;15.542;2023-11-19T12:37:40;11.60;97.20
11569;DHT22;5840;46.894;15.542;2023-11-19T12:40:16;11.60;96.10
11569;DHT22;5840;46.894;15.542;2023-11-19T12:42:43;11.60;94.90
11569;DHT22;5840;46.894;15.542;2023-11-19T12:45:11;11.50;96.50
11569;DHT22;5840;46.894;15.542;2023-11-19T12:47:38;11.60;96.00
11569;DHT22;5840;46.894;15.542;2023-11-19T12:50:07;11.60;96.20
11569;DHT22;5840;46.894;15.542;2023-11-19T12:52:34;11.50;97.20
11569;DHT22;5840;46.894;15.542;2023-11-19T12:55:01;11.60;97.60
11569;DHT22;5840;46.894;15.542;2023-11-19T12:57:44;11.70;95.90
11569;DHT22;5840;46.894;15.542;2023-11-19T13:00:19;11.70;96.00
11569;DHT22;5840;46.894;15.542;2023-11-19T13:02:48;11.80;95.10
11569;DHT22;5840;46.894;15.542;2023-11-19T13:05:26;11.80;94.60
11569;DHT22;5840;46.894;15.542;2023-11-19T13:08:00;11.80;95.30
11569;DHT22;5840;46.894;15.542;2023-11-19T13:10:28;11.90;95.80
11569;DHT22;5840;46.894;15.542;2023-11-19T13:13:04;11.80;94.80
11569;DHT22;5840;46.894;15.542;2023-11-19T13:15:31;11.80;94.90
11569;DHT22;5840;46.894;15.542;2023-11-19T13:17:58;11.80;95.50
11569;DHT22;5840;46.894;15.542;2023-11-19T13:20:24;11.80;95.20
11569;DHT22;5840;46.894;15.542;2023-11-19T13:22:58;11.80;95.40
11569;DHT22;5840;46.894;15.542;2023-11-19T13:25:26;11.70;95.80
11569;DHT22;5840;46.894;15.542;2023-11-19T13:27:53;11.80;95.80
11569;DHT22;5840;46.894;15.542;2023-11-19T13:30:22;11.80;96.20
11569;DHT22;5840;46.894;15.542;2023-11-19T13:32:49;11.80;95.00
11569;DHT22;5840;46.894;15.542;2023-11-19T13:35:16;11.70;94.90
11569;DHT22;5840;46.894;15.542;2023-11-19T13:37:43;11.60;95.30
11569;DHT22;5840;46.894;15.542;2023-11-19T13:40:11;11.60;96.10
11569;DHT22;5840;46.894;15.542;2023-11-19T13:42:39;11.50;95.80
11569;DHT22;5840;46.894;15.542;2023-11-19T13:45:08;11.50;96.00
11569;DHT22;5840;46.894;15.542;2023-11-19T13:47:39;11.50;95.80
11569;DHT22;5840;46.894;15.542;2023-11-19T13:50:09;11.50;96.30
11569;DHT22;5840;46.894;15.542;2023-11-19T13:52:36;11.40;96.90
11569;DHT22;5840;46.894;15.542;2023-11-19T13:55:06;11.50;96.90
11569;DHT22;5840;46.894;15.542;2023-11-19T13:57:33;11.40;96.00
11569;DHT22;5840;46.894;15.542;2023-11-19T14:00:00;11.40;96.40
11569;DHT22;5840;46.894;15.542;2023-11-19T14:02:32;11.40;96.60
11569;DHT22;5840;46.894;15.542;2023-11-19T14:05:00;11.50;97.20
11569;DHT22;5840;46.894;15.542;2023-11-19T14:07:27;11.50;96.60
11569;DHT22;5840;46.894;15.542;2023-11-19T14:09:54;11.50;96.50
11569;DHT22;5840;46.894;15.542;2023-11-19T14:12:21;11.40;97.00
11569;DHT22;5840;46.894;15.542;2023-11-19T14:14:48;11.40;97.10
11569;DHT22;5840;46.894;15.542;2023-11-19T14:17:15;11.30;97.10
11569;DHT22;5840;46.894;15.542;2023-11-19T14:19:42;11.30;98.20
11569;DHT22;5840;46.894;15.542;2023-11-19T14:22:11;11.20;96.70
11569;DHT22;5840;46.894;15.542;2023-11-19T14:24:38;11.10;96.80
11569;DHT22;5840;46.894;15.542;2023-11-19T14:27:06;11.10;97.60
11569;DHT22;5840;46.894;15.542;2023-11-19T14:29:33;11.00;96.70
11569;DHT22;5840;46.894;15.542;2023-11-19T14:32:00;11.00;97.30
11569;DHT22;5840;46.894;15.542;2023-11-19T14:34:28;10.90;98.40
11569;DHT22;5840;46.894;15.542;2023-11-19T14:36:55;10.90;98.90
11569;DHT22;5840;46.894;15.542;2023-11-19T14:39:23;10.90;98.80
11569;DHT22;5840;46.894;15.542;2023-11-19T14:41:50;10.90;99.20
11569;DHT22;5840;46.894;15.542;2023-11-19T14:44:18;10.80;99.10
11569;DHT22;5840;46.894;15.542;2023-11-19T14:46:45;10.80;98.90
11569;DHT22;5840;46.894;15.542;2023-11-19T14:49:12;10.80;98.30
11569;DHT22;5840;46.894;15.542;2023-11-19T14:51:39;10.70;98.90
11569;DHT22;5840;46.894;15.542;2023-11-19T14:54:06;10.60;99.00
11569;DHT22;5840;46.894;15.542;2023-11-19T14:56:35;10.60;98.80
11569;DHT22;5840;46.894;15.542;2023-11-19T14:59:04;10.60;98.70
11569;DHT22;5840;46.894;15.542;2023-11-19T15:01:30;10.60;99.00
11569;DHT22;5840;46.894;15.542;2023-11-19T15:03:57;10.50;99.30
11569;DHT22;5840;46.894;15.542;2023-11-19T15:06:24;10.50;99.60
11569;DHT22;5840;46.894;15.542;2023-11-19T15:08:52;10.40;99.70
11569;DHT22;5840;46.894;15.542;2023-11-19T15:11:20;10.20;99.90
11569;DHT22;5840;46.894;15.542;2023-11-19T15:13:48;10.10;99.90
11569;DHT22;5840;46.894;15.542;2023-11-19T15:16:16;10.00;99.90
11569;DHT22;5840;46.894;15.542;2023-11-19T15:18:48;9.90;99.90
11569;DHT22;5840;46.894;15.542;2023-11-19T15:21:15;9.70;99.90
11569;DHT22;5840;46.894;15.542;2023-11-19T15:23:42;9.50;99.90
11569;DHT22;5840;46.894;15.542;2023-11-19T15:26:09;9.40;99.90
11569;DHT22;5840;46.894;15.542;2023-11-19T15:28:36;9.30;99.90
11569;DHT22;5840;46.894;15.542;2023-11-19T15:31:05;9.00;99.90
11569;DHT22;5840;46.894;15.542;2023-11-19T15:33:32;8.90;99.90
11569;DHT22;5840;46.894;15.542;2023-11-19T15:35:59;8.70;99.90
11569;DHT22;5840;46.894;15.542;2023-11-19T15:38:27;8.50;99.90
11569;DHT22;5840;46.894;15.542;2023-11-19T15:40:55;8.40;99.90
11569;DHT22;5840;46.894;15.542;2023-11-19T15:43:21;8.30;99.90
11569;DHT22;5840;46.894;15.542;2023-11-19T15:45:48;8.30;99.90
11569;DHT22;5840;46.894;15.542;2023-11-19T15:48:17;8.30;99.90
11569;DHT22;5840;46.894;15.542;2023-11-19T15:50:44;8.20;99.90
11569;DHT22;5840;46.894;15.542;2023-11-19T15:53:11;8.20;99.90
11569;DHT22;5840;46.894;15.542;2023-11-19T15:55:38;8.20;99.90
11569;DHT22;5840;46.894;15.542;2023-11-19T15:58:05;8.10;99.90
11569;DHT22;5840;46.894;15.542;2023-11-19T16:00:32;8.10;99.90